createdAt,value
2022-11-20T00:01:54.655Z,98684.00
2022-11-20T00:04:23.908Z,98699.00
2022-11-20T00:06:53.043Z,98693.00
2022-11-20T00:09:22.875Z,98695.00
2022-11-20T00:11:52.244Z,98704.00
2022-11-20T00:14:21.528Z,98701.00
2022-11-20T00:16:50.730Z,98718.00
2022-11-20T00:19:21.298Z,98706.00
2022-11-20T00:21:53.360Z,98720.00
2022-11-20T00:24:22.576Z,98722.00
2022-11-20T00:26:51.916Z,98731.00
2022-11-20T00:29:21.449Z,98736.00
2022-11-20T00:31:50.811Z,98737.00
2022-11-20T00:34:19.959Z,98746.00
2022-11-20T00:36:49.152Z,98748.00
2022-11-20T00:39:18.543Z,98758.00
2022-11-20T00:41:47.960Z,98760.00
2022-11-20T00:44:17.097Z,98765.00
2022-11-20T00:46:46.251Z,98771.00
2022-11-20T00:49:15.470Z,98780.00
2022-11-20T00:51:44.710Z,98784.00
2022-11-20T00:54:13.892Z,98794.00
2022-11-20T00:56:43.095Z,98793.00
2022-11-20T00:59:12.929Z,98801.00
2022-11-20T01:01:42.285Z,98809.00
2022-11-20T01:04:11.471Z,98817.00
2022-11-20T01:06:42.122Z,98835.00
2022-11-20T01:09:16.745Z,98826.00
2022-11-20T01:11:47.324Z,98832.00
2022-11-20T01:14:20.796Z,98840.00
2022-11-20T01:16:56.470Z,98839.00
2022-11-20T01:19:26.777Z,98850.00
2022-11-20T01:21:57.307Z,98854.00
2022-11-20T01:24:27.707Z,98852.00
2022-11-20T01:26:56.842Z,98867.00
2022-11-20T01:29:27.662Z,98856.00
2022-11-20T01:31:56.749Z,98856.00
2022-11-20T01:34:27.556Z,98866.00
2022-11-20T01:36:59.210Z,98858.00
2022-11-20T01:39:29.888Z,98856.00
2022-11-20T01:42:18.041Z,98856.00
2022-11-20T01:44:54.888Z,98864.00
2022-11-20T01:47:46.505Z,98863.00
2022-11-20T01:50:35.679Z,98866.00
2022-11-20T01:53:12.295Z,98874.00
2022-11-20T01:56:12.296Z,98863.00
2022-11-20T01:58:53.371Z,98874.00
2022-11-20T02:01:24.473Z,98872.00
2022-11-20T02:03:54.735Z,98870.00
2022-11-20T02:06:37.411Z,98889.00
2022-11-20T02:09:06.726Z,98885.00
2022-11-20T02:11:35.985Z,98889.00
2022-11-20T02:14:05.090Z,98891.00
2022-11-20T02:16:44.005Z,98891.00
2022-11-20T02:19:30.278Z,98895.00
2022-11-20T02:22:33.522Z,98905.00
2022-11-20T02:25:05.736Z,98902.00
2022-11-20T02:27:35.530Z,98909.00
2022-11-20T02:30:12.817Z,98906.00
2022-11-20T02:32:47.889Z,98901.00
2022-11-20T02:35:22.945Z,98907.00
2022-11-20T02:37:56.783Z,98907.00
2022-11-20T02:40:28.764Z,98905.00
2022-11-20T02:43:04.879Z,98908.00
2022-11-20T02:45:34.456Z,98916.00
2022-11-20T02:48:03.702Z,98916.00
2022-11-20T02:50:33.106Z,98914.00
2022-11-20T02:53:02.404Z,98908.00
2022-11-20T02:55:31.568Z,98909.00
2022-11-20T02:58:00.700Z,98910.00
2022-11-20T03:00:34.349Z,98903.00
2022-11-20T03:03:03.879Z,98910.00
2022-11-20T03:05:35.973Z,98906.00
2022-11-20T03:08:07.938Z,98902.00
2022-11-20T03:10:37.115Z,98905.00
2022-11-20T03:13:06.333Z,98893.00
2022-11-20T03:15:35.606Z,98896.00
2022-11-20T03:18:06.024Z,98892.00
2022-11-20T03:20:41.563Z,98883.00
2022-11-20T03:23:10.749Z,98884.00
2022-11-20T03:25:40.003Z,98877.00
2022-11-20T03:28:09.157Z,98877.00
2022-11-20T03:30:41.181Z,98877.00
2022-11-20T03:33:10.417Z,98875.00
2022-11-20T03:35:39.681Z,98860.00
2022-11-20T03:38:13.645Z,98860.00
2022-11-20T03:40:42.864Z,98854.00
2022-11-20T03:43:12.966Z,98857.00
2022-11-20T03:45:48.249Z,98846.00
2022-11-20T03:48:19.588Z,98843.00
2022-11-20T03:50:51.257Z,98840.00
2022-11-20T03:53:23.541Z,98837.00
2022-11-20T03:56:01.456Z,98831.00
2022-11-20T03:58:33.278Z,98825.00
2022-11-20T04:01:20.903Z,98814.00
2022-11-20T04:03:50.791Z,98816.00
2022-11-20T04:06:29.580Z,98810.00
2022-11-20T04:09:00.725Z,98804.00
2022-11-20T04:11:33.477Z,98807.00
2022-11-20T04:14:10.713Z,98801.00
2022-11-20T04:16:42.733Z,98801.00
2022-11-20T04:19:18.728Z,98793.00
2022-11-20T04:21:48.203Z,98781.00
2022-11-20T04:24:17.334Z,98773.00
2022-11-20T04:26:46.497Z,98775.00
2022-11-20T04:29:15.736Z,98773.00
2022-11-20T04:31:44.811Z,98767.00
2022-11-20T04:34:14.933Z,98768.00
2022-11-20T04:36:44.425Z,98762.00
2022-11-20T04:39:17.564Z,98753.00
2022-11-20T04:41:46.870Z,98754.00
2022-11-20T04:44:16.002Z,98746.00
2022-11-20T04:46:45.627Z,98753.00
2022-11-20T04:49:17.091Z,98748.00
2022-11-20T04:51:48.652Z,98750.00
2022-11-20T04:54:18.298Z,98736.00
2022-11-20T04:56:48.716Z,98737.00
2022-11-20T04:59:18.524Z,98722.00
2022-11-20T05:01:47.976Z,98723.00
2022-11-20T05:04:17.093Z,98728.00
2022-11-20T05:06:47.534Z,98710.00
2022-11-20T05:09:16.773Z,98710.00
2022-11-20T05:11:51.502Z,98715.00
2022-11-20T05:14:20.970Z,98708.00
2022-11-20T05:16:50.658Z,98706.00
2022-11-20T05:19:20.780Z,98711.00
2022-11-20T05:21:53.033Z,98705.00
2022-11-20T05:24:22.236Z,98704.00
2022-11-20T05:26:51.471Z,98706.00
2022-11-20T05:29:20.905Z,98703.00
2022-11-20T05:31:53.198Z,98694.00
2022-11-20T05:34:25.392Z,98687.00
2022-11-20T05:37:00.081Z,98686.00
2022-11-20T05:39:29.351Z,98676.00
2022-11-20T05:42:16.764Z,98673.00
2022-11-20T05:44:45.958Z,98675.00
2022-11-20T05:47:17.255Z,98668.00
2022-11-20T05:49:46.484Z,98661.00
2022-11-20T05:52:18.377Z,98657.00
2022-11-20T05:54:47.585Z,98649.00
2022-11-20T05:57:17.250Z,98642.00
2022-11-20T05:59:46.551Z,98642.00
2022-11-20T06:02:15.900Z,98651.00
2022-11-20T06:04:45.105Z,98648.00
2022-11-20T06:07:14.439Z,98642.00
2022-11-20T06:09:43.697Z,98643.00
2022-11-20T06:12:13.818Z,98630.00
2022-11-20T06:14:43.027Z,98627.00
2022-11-20T06:17:12.610Z,98619.00
2022-11-20T06:19:42.982Z,98609.00
2022-11-20T06:22:12.348Z,98618.00
2022-11-20T06:24:41.503Z,98618.00
2022-11-20T06:27:11.144Z,98606.00
2022-11-20T06:29:40.482Z,98597.00
2022-11-20T06:32:09.746Z,98613.00
2022-11-20T06:34:39.066Z,98608.00
2022-11-20T06:37:08.254Z,98614.00
2022-11-20T06:39:37.414Z,98604.00
2022-11-20T06:42:06.650Z,98599.00
2022-11-20T06:44:35.798Z,98595.00
2022-11-20T06:47:05.285Z,98591.00
2022-11-20T06:49:36.268Z,98589.00
2022-11-20T06:52:05.614Z,98586.00
2022-11-20T06:54:34.766Z,98574.00
2022-11-20T06:57:03.983Z,98578.00
2022-11-20T06:59:33.148Z,98571.00
2022-11-20T07:02:02.501Z,98573.00
2022-11-20T07:04:31.744Z,98567.00
2022-11-20T07:07:00.913Z,98557.00
2022-11-20T07:09:30.324Z,98560.00
2022-11-20T07:11:59.509Z,98552.00
2022-11-20T07:14:28.768Z,98540.00
2022-11-20T07:16:58.856Z,98544.00
2022-11-20T07:19:28.509Z,98543.00
2022-11-20T07:21:57.970Z,98528.00
2022-11-20T07:24:27.061Z,98534.00
2022-11-20T07:26:56.204Z,98529.00
2022-11-20T07:29:25.566Z,98527.00
2022-11-20T07:31:55.027Z,98529.00
2022-11-20T07:34:24.504Z,98522.00
2022-11-20T07:36:53.613Z,98519.00
2022-11-20T07:39:22.968Z,98512.00
2022-11-20T07:41:52.292Z,98512.00
2022-11-20T07:44:21.437Z,98506.00
2022-11-20T07:46:50.526Z,98495.00
2022-11-20T07:49:19.832Z,98492.00
2022-11-20T07:51:51.833Z,98491.00
2022-11-20T07:54:21.560Z,98490.00
2022-11-20T07:56:51.617Z,98485.00
2022-11-20T07:59:20.930Z,98477.00
2022-11-20T08:01:50.263Z,98488.00
2022-11-20T08:04:19.350Z,98480.00
2022-11-20T08:06:48.447Z,98490.00
2022-11-20T08:09:17.608Z,98487.00
2022-11-20T08:12:05.394Z,98483.00
2022-11-20T08:14:34.540Z,98477.00
2022-11-20T08:17:03.691Z,98474.00
2022-11-20T08:19:33.587Z,98475.00
2022-11-20T08:22:02.661Z,98467.00
2022-11-20T08:24:31.780Z,98463.00
2022-11-20T08:27:02.091Z,98464.00
2022-11-20T08:29:31.176Z,98461.00
2022-11-20T08:32:00.372Z,98462.00
2022-11-20T08:34:29.424Z,98469.00
2022-11-20T08:36:58.586Z,98466.00
2022-11-20T08:39:27.796Z,98464.00
2022-11-20T08:41:57.007Z,98470.00
2022-11-20T08:44:26.341Z,98470.00
2022-11-20T08:46:55.458Z,98473.00
2022-11-20T08:49:24.902Z,98474.00
2022-11-20T08:51:55.676Z,98478.00
2022-11-20T08:54:24.856Z,98472.00
2022-11-20T08:56:54.386Z,98475.00
2022-11-20T08:59:43.844Z,98470.00
2022-11-20T09:02:12.825Z,98471.00
2022-11-20T09:04:41.899Z,98472.00
2022-11-20T09:07:11.082Z,98473.00
2022-11-20T09:09:40.311Z,98474.00
2022-11-20T09:12:09.513Z,98472.00
2022-11-20T09:14:38.610Z,98475.00
2022-11-20T09:17:09.529Z,98468.00
2022-11-20T09:19:39.390Z,98465.00
2022-11-20T09:22:08.755Z,98462.00
2022-11-20T09:24:38.260Z,98467.00
2022-11-20T09:27:08.334Z,98472.00
2022-11-20T09:29:37.547Z,98477.00
2022-11-20T09:32:07.186Z,98482.00
2022-11-20T09:34:36.423Z,98479.00
2022-11-20T09:37:07.681Z,98485.00
2022-11-20T09:39:40.688Z,98487.00
2022-11-20T09:42:23.234Z,98491.00
2022-11-20T09:45:24.384Z,98500.00
2022-11-20T09:48:13.182Z,98501.00
2022-11-20T09:51:24.644Z,98504.00
2022-11-20T09:54:05.120Z,98509.00
2022-11-20T09:56:40.434Z,98508.00
2022-11-20T09:59:31.419Z,98509.00
2022-11-20T10:02:04.661Z,98508.00
2022-11-20T10:04:39.642Z,98519.00
2022-11-20T10:07:34.990Z,98531.00
2022-11-20T10:10:04.444Z,98529.00
2022-11-20T10:13:09.367Z,98522.00
2022-11-20T10:19:03.353Z,98526.00
2022-11-20T10:22:02.531Z,98529.00
2022-11-20T10:25:03.458Z,98530.00
2022-11-20T10:27:44.249Z,98535.00
2022-11-20T10:30:18.385Z,98539.00
2022-11-20T10:32:58.998Z,98543.00
2022-11-20T10:35:39.353Z,98539.00
2022-11-20T10:38:32.883Z,98539.00
2022-11-20T10:41:26.349Z,98535.00
2022-11-20T10:44:08.660Z,98544.00
2022-11-20T10:46:47.120Z,98540.00
2022-11-20T10:49:22.324Z,98539.00
2022-11-20T10:52:21.844Z,98544.00
2022-11-20T10:55:32.476Z,98547.00
2022-11-20T10:58:26.720Z,98547.00
2022-11-20T11:01:15.923Z,98552.00
2022-11-20T11:03:45.686Z,98562.00
2022-11-20T11:06:35.127Z,98559.00
2022-11-20T11:09:19.546Z,98558.00
2022-11-20T11:11:49.518Z,98566.00
2022-11-20T11:14:19.294Z,98560.00
2022-11-20T11:16:59.393Z,98564.00
2022-11-20T11:19:28.956Z,98559.00
2022-11-20T11:21:59.727Z,98565.00
2022-11-20T11:24:48.004Z,98562.00
2022-11-20T11:27:19.535Z,98566.00
2022-11-20T11:29:56.716Z,98572.00
2022-11-20T11:32:28.460Z,98573.00
2022-11-20T11:35:21.130Z,98571.00
2022-11-20T11:37:50.988Z,98574.00
2022-11-20T11:40:26.204Z,98582.00
2022-11-20T11:43:27.739Z,98578.00
2022-11-20T11:45:58.592Z,98576.00
2022-11-20T11:48:33.012Z,98577.00
2022-11-20T11:51:02.512Z,98579.00
2022-11-20T11:53:33.285Z,98579.00
2022-11-20T11:56:15.788Z,98580.00
2022-11-20T11:58:54.155Z,98580.00
2022-11-20T12:01:40.398Z,98590.00
2022-11-20T12:04:48.560Z,98597.00
2022-11-20T12:07:55.968Z,98595.00
2022-11-20T12:10:35.047Z,98605.00
2022-11-20T12:13:37.653Z,98610.00
2022-11-20T12:16:22.681Z,98615.00
2022-11-20T12:18:57.616Z,98621.00
2022-11-20T12:22:00.023Z,98626.00
2022-11-20T12:25:22.681Z,98625.00
2022-11-20T12:28:42.895Z,98633.00
2022-11-20T12:31:18.136Z,98642.00
2022-11-20T12:34:04.476Z,98639.00
2022-11-20T12:37:08.642Z,98645.00
2022-11-20T12:39:56.859Z,98643.00
2022-11-20T12:43:02.892Z,98646.00
2022-11-20T12:45:53.475Z,98647.00
2022-11-20T12:48:48.286Z,98649.00
2022-11-20T12:51:38.165Z,98642.00
2022-11-20T12:54:48.617Z,98645.00
2022-11-20T12:57:39.479Z,98653.00
2022-11-20T13:00:27.990Z,98651.00
2022-11-20T13:03:15.319Z,98656.00
2022-11-20T13:06:19.787Z,98660.00
2022-11-20T13:08:57.838Z,98659.00
2022-11-20T13:12:08.453Z,98666.00
2022-11-20T13:15:21.634Z,98668.00
2022-11-20T13:18:00.827Z,98678.00
2022-11-20T13:20:32.367Z,98675.00
2022-11-20T13:23:01.723Z,98676.00
2022-11-20T13:25:51.922Z,98681.00
2022-11-20T13:28:20.960Z,98683.00
2022-11-20T13:30:56.216Z,98675.00
2022-11-20T13:33:38.002Z,98678.00
2022-11-20T13:36:22.987Z,98680.00
2022-11-20T13:38:58.047Z,98675.00
2022-11-20T13:41:39.632Z,98676.00
2022-11-20T13:44:39.812Z,98676.00
2022-11-20T13:47:28.126Z,98678.00
2022-11-20T13:50:01.295Z,98675.00
2022-11-20T13:53:44.563Z,98678.00
2022-11-20T13:56:36.561Z,98678.00
2022-11-20T13:59:58.434Z,98683.00
2022-11-20T14:02:36.633Z,98687.00
2022-11-20T14:05:08.834Z,98683.00
2022-11-20T14:07:46.104Z,98692.00
2022-11-20T14:10:34.428Z,98694.00
2022-11-20T14:13:17.762Z,98687.00
2022-11-20T14:15:46.853Z,98691.00
2022-11-20T14:18:26.120Z,98698.00
2022-11-20T14:21:01.303Z,98695.00
2022-11-20T14:23:31.875Z,98699.00
2022-11-20T14:26:01.089Z,98699.00
2022-11-20T14:28:33.518Z,98698.00
2022-11-20T14:31:08.032Z,98698.00
2022-11-20T14:33:38.883Z,98701.00
2022-11-20T14:36:08.357Z,98704.00
2022-11-20T14:38:38.363Z,98710.00
2022-11-20T14:41:25.844Z,98709.00
2022-11-20T14:44:05.136Z,98708.00
2022-11-20T14:46:36.041Z,98704.00
2022-11-20T14:52:00.492Z,98711.00
2022-11-20T14:54:31.122Z,98712.00
2022-11-20T14:57:06.767Z,98715.00
2022-11-20T14:59:37.899Z,98710.00
2022-11-20T15:02:12.649Z,98711.00
2022-11-20T15:04:50.743Z,98706.00
2022-11-20T15:07:42.597Z,98701.00
2022-11-20T15:10:15.603Z,98709.00
2022-11-20T15:13:01.984Z,98708.00
2022-11-20T15:15:33.829Z,98706.00
2022-11-20T15:18:04.270Z,98705.00
2022-11-20T15:20:37.906Z,98714.00
2022-11-20T15:23:19.811Z,98712.00
2022-11-20T15:25:50.952Z,98713.00
2022-11-20T15:28:30.230Z,98706.00
2022-11-20T15:30:59.828Z,98705.00
2022-11-20T15:33:29.256Z,98705.00
2022-11-20T15:35:58.939Z,98702.00
2022-11-20T15:38:28.369Z,98705.00
2022-11-20T15:40:58.215Z,98702.00
2022-11-20T15:43:27.401Z,98702.00
2022-11-20T15:46:03.395Z,98707.00
2022-11-20T15:48:47.638Z,98703.00
2022-11-20T15:51:37.517Z,98701.00
2022-11-20T15:54:24.921Z,98708.00
2022-11-20T15:56:57.112Z,98705.00
2022-11-20T15:59:26.545Z,98705.00
2022-11-20T16:01:55.818Z,98713.00
2022-11-20T16:04:25.396Z,98713.00
2022-11-20T16:06:57.644Z,98708.00
2022-11-20T16:09:26.948Z,98709.00
2022-11-20T16:12:08.345Z,98702.00
2022-11-20T16:14:58.592Z,98703.00
2022-11-20T16:17:47.259Z,98695.00
2022-11-20T16:20:16.975Z,98697.00
2022-11-20T16:22:46.201Z,98699.00
2022-11-20T16:25:15.439Z,98703.00
2022-11-20T16:27:44.605Z,98700.00
2022-11-20T16:30:19.937Z,98693.00
2022-11-20T16:32:52.741Z,98694.00
2022-11-20T16:35:23.850Z,98700.00
2022-11-20T16:37:55.242Z,98686.00
2022-11-20T16:40:25.327Z,98687.00
2022-11-20T16:42:54.558Z,98682.00
2022-11-20T16:45:27.880Z,98676.00
2022-11-20T16:47:59.285Z,98678.00
2022-11-20T16:50:28.435Z,98678.00
2022-11-20T16:52:58.158Z,98674.00
2022-11-20T16:55:27.754Z,98672.00
2022-11-20T16:57:56.898Z,98673.00
2022-11-20T17:00:26.042Z,98673.00
2022-11-20T17:02:55.937Z,98670.00
2022-11-20T17:05:25.089Z,98667.00
2022-11-20T17:07:54.270Z,98659.00
2022-11-20T17:10:23.549Z,98656.00
2022-11-20T17:12:52.724Z,98653.00
2022-11-20T17:15:21.949Z,98652.00
2022-11-20T17:17:54.726Z,98649.00
2022-11-20T17:20:27.601Z,98655.00
2022-11-20T17:22:57.544Z,98652.00
2022-11-20T17:25:29.567Z,98650.00
2022-11-20T17:28:04.557Z,98639.00
2022-11-20T17:30:33.747Z,98645.00
2022-11-20T17:33:03.227Z,98638.00
2022-11-20T17:35:32.399Z,98644.00
2022-11-20T17:38:01.559Z,98640.00
2022-11-20T17:40:31.958Z,98642.00
2022-11-20T17:43:08.567Z,98639.00
2022-11-20T17:45:40.475Z,98637.00
2022-11-20T17:48:09.784Z,98629.00
2022-11-20T17:50:39.148Z,98624.00
2022-11-20T17:53:11.236Z,98630.00
2022-11-20T17:55:58.600Z,98617.00
2022-11-20T17:58:33.091Z,98618.00
2022-11-20T18:01:12.138Z,98614.00
2022-11-20T18:03:41.411Z,98612.00
2022-11-20T18:06:26.048Z,98614.00
2022-11-20T18:08:55.443Z,98613.00
2022-11-20T18:11:30.816Z,98608.00
2022-11-20T18:14:21.401Z,98613.00
2022-11-20T18:17:00.409Z,98614.00
2022-11-20T18:19:36.528Z,98613.00
2022-11-20T18:22:11.732Z,98607.00
2022-11-20T18:24:41.712Z,98597.00
2022-11-20T18:27:21.883Z,98599.00
2022-11-20T18:29:52.947Z,98597.00
2022-11-20T18:32:23.760Z,98591.00
2022-11-20T18:34:53.376Z,98592.00
2022-11-20T18:37:23.300Z,98581.00
2022-11-20T18:39:52.688Z,98585.00
2022-11-20T18:42:39.916Z,98577.00
2022-11-20T18:45:09.729Z,98575.00
2022-11-20T18:47:40.996Z,98570.00
2022-11-20T18:50:11.493Z,98568.00
2022-11-20T18:52:47.860Z,98568.00
2022-11-20T18:55:19.775Z,98563.00
2022-11-20T18:57:48.978Z,98567.00
2022-11-20T19:00:18.880Z,98560.00
2022-11-20T19:02:55.389Z,98556.00
2022-11-20T19:05:24.552Z,98559.00
2022-11-20T19:07:56.238Z,98563.00
2022-11-20T19:10:25.801Z,98558.00
2022-11-20T19:12:55.021Z,98562.00
2022-11-20T19:15:24.232Z,98569.00
2022-11-20T19:17:54.166Z,98553.00
2022-11-20T19:20:23.669Z,98552.00
2022-11-20T19:22:54.625Z,98558.00
2022-11-20T19:25:23.951Z,98554.00
2022-11-20T19:27:53.131Z,98550.00
2022-11-20T19:30:22.318Z,98557.00
2022-11-20T19:32:51.463Z,98557.00
2022-11-20T19:35:20.608Z,98558.00
2022-11-20T19:37:49.801Z,98556.00
2022-11-20T19:40:19.024Z,98554.00
2022-11-20T19:42:48.225Z,98549.00
2022-11-20T19:45:17.584Z,98549.00
2022-11-20T19:48:06.615Z,98549.00
2022-11-20T19:50:35.937Z,98539.00
2022-11-20T19:53:05.154Z,98536.00
2022-11-20T19:55:34.301Z,98540.00
2022-11-20T19:58:04.388Z,98543.00
2022-11-20T20:00:33.577Z,98536.00
2022-11-20T20:03:02.968Z,98535.00
2022-11-20T20:05:32.156Z,98536.00
2022-11-20T20:08:01.318Z,98531.00
2022-11-20T20:10:30.585Z,98529.00
2022-11-20T20:12:59.823Z,98530.00
2022-11-20T20:15:29.129Z,98526.00
2022-11-20T20:17:59.151Z,98525.00
2022-11-20T20:20:28.421Z,98528.00
2022-11-20T20:22:57.651Z,98535.00
2022-11-20T20:25:27.336Z,98527.00
2022-11-20T20:27:56.945Z,98524.00
2022-11-20T20:30:26.095Z,98531.00
2022-11-20T20:32:56.543Z,98535.00
2022-11-20T20:35:26.070Z,98531.00
2022-11-20T20:37:55.711Z,98534.00
2022-11-20T20:40:24.871Z,98534.00
2022-11-20T20:42:54.073Z,98520.00
2022-11-20T20:45:23.282Z,98520.00
2022-11-20T20:47:52.425Z,98521.00
2022-11-20T20:50:21.789Z,98528.00
2022-11-20T20:52:51.324Z,98519.00
2022-11-20T20:55:20.616Z,98524.00
2022-11-20T20:57:49.896Z,98521.00
2022-11-20T21:00:19.300Z,98528.00
2022-11-20T21:02:48.526Z,98521.00
2022-11-20T21:05:17.976Z,98522.00
2022-11-20T21:08:05.308Z,98518.00
2022-11-20T21:10:35.592Z,98510.00
2022-11-20T21:13:04.964Z,98514.00
2022-11-20T21:15:34.133Z,98511.00
2022-11-20T21:18:04.126Z,98513.00
2022-11-20T21:20:51.557Z,98518.00
2022-11-20T21:24:24.764Z,98519.00
2022-11-20T21:26:54.291Z,98517.00
2022-11-20T21:29:25.587Z,98519.00
2022-11-20T21:31:55.644Z,98515.00
2022-11-20T21:34:26.033Z,98519.00
2022-11-20T21:36:55.366Z,98505.00
2022-11-20T21:39:24.550Z,98511.00
2022-11-20T21:41:53.601Z,98512.00
2022-11-20T21:44:31.397Z,98512.00
2022-11-20T21:47:00.984Z,98514.00
2022-11-20T21:49:30.368Z,98514.00
2022-11-20T21:51:59.523Z,98517.00
2022-11-20T21:54:28.742Z,98518.00
2022-11-20T21:56:58.001Z,98523.00
2022-11-20T21:59:27.161Z,98517.00
2022-11-20T22:01:56.434Z,98522.00
2022-11-20T22:04:25.862Z,98519.00
2022-11-20T22:06:55.148Z,98524.00
2022-11-20T22:09:24.407Z,98521.00
2022-11-20T22:11:53.570Z,98517.00
2022-11-20T22:14:23.311Z,98519.00
2022-11-20T22:16:54.909Z,98523.00
2022-11-20T22:19:26.066Z,98520.00
2022-11-20T22:21:55.220Z,98524.00
2022-11-20T22:24:25.094Z,98521.00
2022-11-20T22:26:54.511Z,98520.00
2022-11-20T22:29:23.734Z,98520.00
2022-11-20T22:31:56.185Z,98528.00
2022-11-20T22:34:25.518Z,98537.00
2022-11-20T22:36:54.715Z,98534.00
2022-11-20T22:39:24.519Z,98531.00
2022-11-20T22:41:53.615Z,98536.00
2022-11-20T22:44:22.826Z,98531.00
2022-11-20T22:46:52.084Z,98541.00
2022-11-20T22:49:21.186Z,98540.00
2022-11-20T22:51:50.243Z,98545.00
2022-11-20T22:54:19.362Z,98535.00
2022-11-20T22:56:48.441Z,98541.00
2022-11-20T22:59:19.459Z,98540.00
2022-11-20T23:01:48.570Z,98545.00
2022-11-20T23:04:17.644Z,98544.00
2022-11-20T23:06:46.742Z,98548.00
2022-11-20T23:09:15.880Z,98553.00
2022-11-20T23:11:45.039Z,98556.00
2022-11-20T23:14:19.867Z,98556.00
2022-11-20T23:16:51.712Z,98560.00
2022-11-20T23:19:21.264Z,98559.00
2022-11-20T23:21:50.360Z,98563.00
2022-11-20T23:24:19.978Z,98560.00
2022-11-20T23:26:49.076Z,98564.00
2022-11-20T23:29:18.433Z,98577.00
2022-11-20T23:31:47.694Z,98570.00
2022-11-20T23:34:17.108Z,98570.00
2022-11-20T23:36:46.139Z,98575.00
2022-11-20T23:39:17.372Z,98578.00
2022-11-20T23:41:47.217Z,98578.00
2022-11-20T23:44:16.263Z,98581.00
2022-11-20T23:46:45.454Z,98576.00
2022-11-20T23:49:14.569Z,98584.00
2022-11-20T23:52:07.851Z,98594.00
2022-11-20T23:54:36.999Z,98598.00
2022-11-20T23:57:08.265Z,98604.00
2022-11-20T23:59:42.804Z,98606.00
